Terminal Aerodrome Forecast
Issued by NWS Lake Charles, LA

Home | Current Version | Previous Version | Text Only | Print | Product List | Glossary On
Versions: 1 2 3 4 5 6 7 8 9 10 11 12 13 14 15 16 17
000
FTUS44 KLCH 250720 AAA
TAFLFT
TAF AMD
KLFT 250720Z 2507/2606 20005KT 6SM BR VCSH SCT015 OVC070
      TEMPO 2507/2511 BKN015
     FM251100 22003KT 4SM BR BKN007 OVC015
     FM251500 20008KT P6SM BKN029 BKN040
     FM260200 20008KT P6SM SCT004 OVC009
     FM260500 21005KT 2SM BR BKN004 OVC009=

USA.gov is the U.S. government's official web portal to all federal, state and local government web resources and services.